Time;durP1;ratioP1;P1;durP2;ratioP2;P2;SDS_P1;SDS_P2;PMS_P1;PMS_P2;Temp;Humidity;BMP_temperature;BMP_pressure;BME280_temperature;BME280_humidity;BME280_pressure;Samples;Min_cycle;Max_cycle;Signal;HPM_P1;HPM_P2
2022/08/04 00:02:06;;;;;;;6.85;4.53;;;;;;;27.34;51.86;101335.25;1509239;94;21626;-50
2022/08/04 00:04:58;;;;;;;5.20;4.55;;;;;;;27.36;52.02;101343.51;1511243;93;21175;-51
2022/08/04 00:07:42;;;;;;;5.78;4.37;;;;;;;27.37;52.05;101338.51;1510614;94;21083;-52
2022/08/04 00:10:09;;;;;;;5.05;4.60;;;;;;;27.36;52.01;101343.51;1485186;96;21151;-50
2022/08/04 00:15:10;;;;;;;5.05;4.67;;;;;;;27.28;52.45;101345.93;1517470;93;21063;-50
2022/08/04 00:17:42;;;;;;;4.00;3.70;;;;;;;27.27;52.74;101346.89;1531054;93;21052;-51
2022/08/04 00:20:11;;;;;;;4.55;4.22;;;;;;;27.21;52.96;101347.39;1519985;93;21075;-51
2022/08/04 00:22:39;;;;;;;5.25;4.72;;;;;;;27.11;53.44;101343.78;1526418;93;21642;-52
2022/08/04 00:25:07;;;;;;;5.37;4.90;;;;;;;27.14;53.66;101340.84;1529733;93;21031;-48
2022/08/04 00:27:35;;;;;;;5.72;4.67;;;;;;;27.16;53.49;101342.90;1530083;93;21032;-51
2022/08/04 00:30:02;;;;;;;5.17;4.65;;;;;;;27.13;53.43;101340.97;1536447;92;21080;-53
2022/08/04 00:32:29;;;;;;;6.37;4.55;;;;;;;27.11;53.37;101341.11;1514874;93;21190;-51
2022/08/04 00:34:57;;;;;;;5.20;4.70;;;;;;;27.11;53.28;101346.45;1553096;92;21081;-50
2022/08/04 00:37:25;;;;;;;63.05;56.92;;;;;;;27.12;53.52;101342.79;1553373;92;21601;-51
2022/08/04 00:39:53;;;;;;;7.78;7.08;;;;;;;27.13;53.69;101348.52;1552943;92;21083;-49
2022/08/04 00:42:46;;;;;;;6.17;5.50;;;;;;;27.14;53.70;101346.19;1553276;91;21110;-53
2022/08/04 00:45:33;;;;;;;5.85;4.67;;;;;;;27.11;53.65;101354.47;1522365;94;21051;-52
2022/08/04 00:48:37;;;;;;;5.20;4.80;;;;;;;27.08;53.83;101357.37;1525317;94;21589;-51
2022/08/04 00:51:21;;;;;;;6.60;5.17;;;;;;;27.04;54.12;101358.59;1523491;94;21582;-52
2022/08/04 00:54:14;;;;;;;5.45;4.95;;;;;;;27.04;54.13;101362.60;1523899;94;21086;-51
2022/08/04 00:56:58;;;;;;;5.37;4.97;;;;;;;27.00;54.11;101362.48;1548891;92;21093;-53
2022/08/04 00:59:45;;;;;;;6.37;4.90;;;;;;;26.95;54.20;101361.16;1536869;92;21153;-49
2022/08/04 01:02:20;;;;;;;5.05;4.67;;;;;;;26.92;54.35;101360.06;1589799;89;21167;-57
2022/08/04 01:05:06;;;;;;;5.28;4.87;;;;;;;26.89;54.45;101365.67;1590273;89;21602;-51
2022/08/04 01:07:56;;;;;;;6.17;5.12;;;;;;;26.84;54.52;101372.70;1593270;89;21097;-52
2022/08/04 01:10:58;;;;;;;6.50;4.75;;;;;;;26.83;54.45;101367.50;1593694;89;21087;-51
2022/08/04 01:13:53;;;;;;;4.80;4.40;;;;;;;26.80;54.37;101372.59;1611068;88;21086;-50
2022/08/04 01:16:26;;;;;;;4.87;4.42;;;;;;;26.75;54.49;101370.75;1610781;88;21145;-50
2022/08/04 01:19:04;;;;;;;4.92;4.42;;;;;;;26.72;54.56;101371.02;1610971;88;21625;-50
2022/08/04 01:21:58;;;;;;;5.30;4.75;;;;;;;26.70;54.76;101367.58;1619761;87;21546;-50
2022/08/04 01:25:00;;;;;;;5.53;5.03;;;;;;;26.68;54.81;101369.53;1606053;89;21026;-53
2022/08/04 01:27:59;;;;;;;6.00;5.22;;;;;;;26.67;54.91;101377.66;1581446;89;21116;-52
2022/08/04 01:30:26;;;;;;;6.62;4.50;;;;;;;26.64;54.92;101377.41;1581319;91;21083;-50
2022/08/04 01:33:06;;;;;;;4.78;4.37;;;;;;;26.60;55.07;101378.63;1605755;89;21542;-53
2022/08/04 01:35:45;;;;;;;5.67;5.17;;;;;;;26.56;55.20;101376.66;1605996;89;21022;-53
2022/08/04 01:38:35;;;;;;;5.25;4.85;;;;;;;26.53;55.29;101378.73;1562899;91;21554;-56
2022/08/04 01:41:05;;;;;;;5.33;4.83;;;;;;;26.50;55.36;101380.33;1565942;91;21118;-53
2022/08/04 01:43:34;;;;;;;5.15;4.65;;;;;;;26.45;55.57;101381.15;1565146;91;21031;-53
2022/08/04 01:46:03;;;;;;;6.03;4.55;;;;;;;26.43;55.68;101377.75;1573690;91;21147;-50
2022/08/04 01:48:30;;;;;;;4.80;4.40;;;;;;;26.43;55.77;101371.08;1637440;85;21103;-51
2022/08/04 01:51:00;;;;;;;5.50;4.75;;;;;;;26.43;55.82;101377.75;1688658;83;21077;-51
2022/08/04 01:53:32;;;;;;;5.22;4.78;;;;;;;26.44;55.81;101379.47;1687947;83;21085;-49
2022/08/04 01:56:01;;;;;;;5.50;5.10;;;;;;;26.46;55.80;101374.86;1693415;83;21002;-53
2022/08/04 01:58:30;;;;;;;4.37;3.98;;;;;;;26.45;55.92;101376.67;1687543;83;21014;-51
2022/08/04 02:01:01;;;;;;;4.95;4.55;;;;;;;26.44;55.98;101375.47;1689965;84;21054;-53
2022/08/04 02:03:29;;;;;;;5.75;4.67;;;;;;;26.44;56.09;101378.96;1652157;86;21102;-54
2022/08/04 02:06:16;;;;;;;5.87;5.37;;;;;;;26.46;56.09;101377.53;1652110;86;21046;-50
2022/08/04 02:09:23;;;;;;;5.67;5.17;;;;;;;26.47;56.11;101371.20;1652325;86;21085;-53
2022/08/04 02:12:16;;;;;;;5.58;5.03;;;;;;;26.46;56.06;101362.85;1655676;85;21043;-50
2022/08/04 02:14:48;;;;;;;4.78;4.37;;;;;;;26.44;56.08;101365.62;1658173;85;21115;-50
2022/08/04 02:17:32;;;;;;;5.05;4.65;;;;;;;26.43;56.18;101361.74;1636169;87;21085;-51
2022/08/04 02:20:07;;;;;;;5.45;4.95;;;;;;;26.44;56.14;101370.13;1635227;87;21537;-53
2022/08/04 02:22:40;;;;;;;5.40;4.90;;;;;;;26.44;56.12;101366.13;1636130;87;21082;-52
2022/08/04 02:25:08;;;;;;;5.12;4.72;;;;;;;26.44;56.24;101367.45;1595241;89;21074;-53
2022/08/04 02:27:50;;;;;;;5.20;4.80;;;;;;;26.42;56.00;101366.73;1598247;89;21050;-50
2022/08/04 02:30:17;;;;;;;5.92;5.30;;;;;;;26.41;56.01;101367.69;1598307;89;21142;-49
2022/08/04 02:32:44;;;;;;;5.50;5.10;;;;;;;26.38;56.14;101363.91;1598047;89;21125;-52
2022/08/04 02:35:22;;;;;;;5.65;5.15;;;;;;;26.37;56.23;101371.08;1615186;88;21578;-52
2022/08/04 02:37:53;;;;;;;7.20;5.60;;;;;;;26.36;56.21;101367.17;1611461;88;21034;-51
2022/08/04 02:40:21;;;;;;;5.55;5.00;;;;;;;26.34;56.26;101370.45;1637850;85;21105;-55
2022/08/04 02:42:47;;;;;;;5.28;4.87;;;;;;;26.32;56.30;101370.58;1620599;88;21570;-52
2022/08/04 02:45:14;;;;;;;6.12;5.37;;;;;;;26.34;56.34;101369.11;1681789;84;21102;-53
2022/08/04 02:47:41;;;;;;;5.80;5.30;;;;;;;26.34;56.44;101369.11;1635583;85;21601;-53
2022/08/04 02:50:09;;;;;;;5.35;4.95;;;;;;;26.35;56.42;101369.02;1682017;85;21098;-50
2022/08/04 02:52:35;;;;;;;6.05;5.55;;;;;;;26.35;56.35;101367.69;1605872;88;21102;-50
2022/08/04 02:55:02;;;;;;;5.35;4.85;;;;;;;26.34;56.33;101367.78;1675004;83;21082;-50
2022/08/04 02:57:29;;;;;;;5.08;4.67;;;;;;;26.34;56.37;101367.78;1694721;83;21547;-53
2022/08/04 03:00:02;;;;;;;5.42;4.92;;;;;;;26.30;56.51;101364.98;1694790;83;21062;-56
2022/08/04 03:03:05;;;;;;;7.67;5.03;;;;;;;26.30;56.62;101375.66;1696330;83;21086;-53
2022/08/04 03:06:04;;;;;;;5.58;5.17;;;;;;;26.29;56.65;101368.64;1680137;83;21049;-50
2022/08/04 03:09:27;;;;;;;5.95;5.45;;;;;;;26.31;56.85;101374.23;1680183;83;21046;-54
2022/08/04 03:12:19;;;;;;;6.62;5.60;;;;;;;26.30;56.65;101373.84;1694886;83;21063;-53
2022/08/04 03:15:00;;;;;;;5.65;5.15;;;;;;;26.27;56.83;101374.58;1702484;83;21082;-55
2022/08/04 03:18:05;;;;;;;5.20;4.80;;;;;;;26.27;56.87;101377.25;1637180;87;21026;-50
2022/08/04 03:21:01;;;;;;;5.70;5.20;;;;;;;26.25;56.93;101379.19;1634661;87;21538;-52
2022/08/04 03:24:07;;;;;;;6.08;5.58;;;;;;;26.26;57.04;101379.53;1665973;85;21523;-55
2022/08/04 03:26:51;;;;;;;10.45;5.22;;;;;;;26.26;57.01;101379.53;1673210;85;21023;-55
2022/08/04 03:30:09;;;;;;;5.60;5.00;;;;;;;26.25;57.13;101381.85;1664136;85;21047;-52
2022/08/04 03:33:08;;;;;;;7.40;5.40;;;;;;;26.27;57.34;101390.59;1667125;85;21056;-50
2022/08/04 03:36:14;;;;;;;5.70;5.20;;;;;;;26.29;57.24;101380.64;1627947;87;21098;-51
2022/08/04 03:39:10;;;;;;;5.35;4.85;;;;;;;26.28;57.21;101386.94;1623661;87;21085;-50
2022/08/04 03:41:51;;;;;;;6.22;5.15;;;;;;;26.27;57.28;101381.25;1627903;87;21574;-50
2022/08/04 03:44:38;;;;;;;5.80;5.30;;;;;;;26.29;57.24;101389.51;1610106;89;21140;-52
2022/08/04 03:47:37;;;;;;;5.95;5.45;;;;;;;26.31;57.29;101386.71;1568988;91;21557;-50
2022/08/04 03:50:39;;;;;;;5.87;5.37;;;;;;;26.32;57.29;101389.25;1569563;91;21085;-53
2022/08/04 03:53:28;;;;;;;5.72;5.33;;;;;;;26.37;57.30;101391.58;1565691;91;21101;-50
2022/08/04 03:56:30;;;;;;;5.72;5.22;;;;;;;26.42;57.30;101393.42;1569365;91;21101;-53
2022/08/04 03:59:26;;;;;;;6.40;5.75;;;;;;;26.48;57.04;101392.42;1556884;91;21084;-50
2022/08/04 04:02:13;;;;;;;6.05;5.55;;;;;;;26.55;56.81;101392.80;1548675;92;21133;-52
2022/08/04 04:05:11;;;;;;;6.30;5.80;;;;;;;26.57;56.52;101385.05;1543610;92;21109;-49
2022/08/04 04:08:08;;;;;;;6.00;5.47;;;;;;;26.55;56.53;101390.14;1548624;92;21075;-52
2022/08/04 04:11:09;;;;;;;6.05;5.45;;;;;;;26.51;56.45;101388.67;1544255;92;21074;-52
2022/08/04 04:14:13;;;;;;;6.60;6.00;;;;;;;26.47;56.59;101391.22;1555180;91;21161;-52
2022/08/04 04:17:23;;;;;;;6.90;6.20;;;;;;;26.45;56.58;101390.49;1556531;92;21616;-51
2022/08/04 04:20:04;;;;;;;6.45;5.95;;;;;;;26.45;56.55;101399.83;1538828;88;21060;-48
2022/08/04 04:23:15;;;;;;;6.05;5.20;;;;;;;26.43;56.54;101393.77;1611313;88;21105;-48
2022/08/04 04:25:56;;;;;;;6.77;5.93;;;;;;;26.43;56.83;101396.44;1630097;87;21072;-50
2022/08/04 04:28:29;;;;;;;;;;;;;;;26.44;56.85;101399.48;1593898;89;21024;-54
2022/08/04 04:31:16;;;;;;;7.15;6.55;;;;;;;26.50;56.96;101400.34;1591595;89;20155;-53
2022/08/04 04:34:01;;;;;;;7.65;6.90;;;;;;;26.53;56.60;101404.09;1541593;93;21062;-52
2022/08/04 04:37:11;;;;;;;7.30;6.12;;;;;;;26.54;56.54;101401.80;1541796;93;21126;-51
2022/08/04 04:39:58;;;;;;;6.42;5.92;;;;;;;26.54;56.70;101402.63;1536489;93;21122;-53
2022/08/04 04:43:08;;;;;;;7.20;6.58;;;;;;;26.60;56.49;101407.48;1581509;90;21033;-52
2022/08/04 04:46:01;;;;;;;6.97;6.37;;;;;;;26.65;56.55;101401.78;1588364;90;21155;-57
2022/08/04 04:49:22;;;;;;;7.10;6.40;;;;;;;26.70;56.41;101403.63;1585344;90;21580;-54
2022/08/04 04:51:57;;;;;;;6.80;6.20;;;;;;;26.71;56.33;101400.48;1563233;90;21046;-52
2022/08/04 04:54:40;;;;;;;6.47;5.97;;;;;;;26.70;56.24;101407.63;1555256;92;21140;-52
2022/08/04 04:57:19;;;;;;;7.00;6.40;;;;;;;26.70;56.35;101408.11;1555091;92;21581;-50
2022/08/04 04:59:56;;;;;;;7.40;6.50;;;;;;;26.69;56.41;101407.77;1555350;92;21085;-51
2022/08/04 05:03:20;;;;;;;7.47;6.78;;;;;;;26.68;56.28;101409.57;1522476;93;21172;-53
2022/08/04 05:06:19;;;;;;;6.62;5.80;;;;;;;26.67;56.37;101407.03;1505232;94;21125;-49
2022/08/04 05:08:54;;;;;;;7.25;6.28;;;;;;;26.66;56.50;101406.65;1507603;93;21571;-53
2022/08/04 05:12:01;;;;;;;7.47;6.87;;;;;;;26.66;56.60;101410.17;1586114;89;21084;-51
2022/08/04 05:14:32;;;;;;;7.78;7.17;;;;;;;26.66;56.48;101403.50;1591117;89;21068;-51
2022/08/04 05:17:07;;;;;;;7.75;7.03;;;;;;;26.67;56.62;101413.20;1594483;89;21088;-52
2022/08/04 05:20:04;;;;;;;7.08;6.47;;;;;;;26.71;56.60;101415.98;1591617;90;21084;-51
2022/08/04 05:22:40;;;;;;;7.12;6.42;;;;;;;26.74;56.58;101411.79;1581339;90;21621;-51
2022/08/04 05:25:18;;;;;;;8.08;6.83;;;;;;;26.78;56.44;101411.91;1567921;90;21663;-51
2022/08/04 05:28:05;;;;;;;8.73;7.95;;;;;;;26.81;56.41;101411.66;1564331;91;21126;-51
2022/08/04 05:30:37;;;;;;;7.97;7.37;;;;;;;26.84;56.38;101411.91;1532995;93;21081;-53
2022/08/04 05:33:09;;;;;;;7.97;7.17;;;;;;;26.83;56.24;101407.04;1506771;94;21082;-52
2022/08/04 05:35:40;;;;;;;7.22;6.15;;;;;;;26.85;56.25;101413.14;1511045;94;21151;-53
2022/08/04 05:38:06;;;;;;;8.08;6.78;;;;;;;26.90;56.23;101413.61;1510490;94;21167;-50
2022/08/04 05:40:34;;;;;;;7.15;6.45;;;;;;;27.00;56.03;101415.05;1482615;96;21137;-52
2022/08/04 05:43:00;;;;;;;14.15;7.30;;;;;;;27.11;55.79;101418.58;1501864;94;21558;-53
2022/08/04 05:45:27;;;;;;;8.83;8.03;;;;;;;27.24;55.52;101425.95;1502187;94;21112;-50
2022/08/04 05:47:54;;;;;;;8.45;7.70;;;;;;;27.37;55.03;101428.52;1497241;95;21686;-51
2022/08/04 05:50:21;;;;;;;8.08;7.35;;;;;;;27.46;54.78;101429.60;1472823;97;21132;-52
2022/08/04 05:52:49;;;;;;;7.67;6.95;;;;;;;27.56;54.49;101431.88;1454181;97;21120;-51
2022/08/04 05:55:16;;;;;;;8.40;7.60;;;;;;;27.62;54.25;101435.39;1472757;96;21112;-51
2022/08/04 05:57:43;;;;;;;8.48;7.67;;;;;;;27.69;54.13;101436.59;1511708;93;21674;-50
2022/08/04 06:00:11;;;;;;;7.47;6.78;;;;;;;27.78;54.11;101431.83;1517787;93;21194;-53
2022/08/04 06:02:38;;;;;;;8.30;7.60;;;;;;;27.93;53.84;101433.21;1531741;93;21622;-51
2022/08/04 06:05:06;;;;;;;8.45;7.65;;;;;;;28.11;53.42;101427.69;1544247;91;21059;-53
2022/08/04 06:07:33;;;;;;;7.83;7.12;;;;;;;28.27;52.98;101426.77;1544601;91;21043;-52
2022/08/04 06:10:01;;;;;;;7.97;7.33;;;;;;;28.45;52.62;101425.20;1544424;91;21150;-50
2022/08/04 06:12:48;;;;;;;10.05;7.92;;;;;;;28.60;52.03;101417.22;1544427;91;21143;-52
2022/08/04 06:15:19;;;;;;;8.60;7.87;;;;;;;28.71;51.75;101417.59;1544260;91;21126;-53
2022/08/04 06:17:49;;;;;;;;;;;;;;;28.77;51.21;101417.92;1558037;91;21293;-54
2022/08/04 06:20:17;;;;;;;11.08;8.28;;;;;;;28.81;51.20;101419.34;1527666;93;20110;-53
2022/08/04 06:22:47;;;;;;;8.78;8.05;;;;;;;28.80;51.22;101418.15;1530319;94;21106;-51
2022/08/04 06:25:19;;;;;;;9.50;7.85;;;;;;;28.76;51.36;101422.94;1545776;89;21075;-53
2022/08/04 06:27:47;;;;;;;8.30;7.53;;;;;;;28.68;51.56;101425.44;1615965;87;21066;-52
2022/08/04 06:30:15;;;;;;;8.58;7.78;;;;;;;28.65;51.74;101427.02;1673265;84;21567;-51
2022/08/04 06:32:48;;;;;;;9.08;8.28;;;;;;;28.62;51.59;101426.45;1699935;82;21003;-50
2022/08/04 06:35:20;;;;;;;8.95;7.85;;;;;;;28.60;51.69;101427.08;1700236;82;21015;-52
2022/08/04 06:37:47;;;;;;;8.90;8.00;;;;;;;28.61;51.70;101432.29;1699834;82;21527;-49
2022/08/04 06:40:19;;;;;;;9.53;8.70;;;;;;;28.62;51.51;101435.34;1700477;82;21039;-52
2022/08/04 06:42:46;;;;;;;8.90;8.10;;;;;;;28.60;51.49;101435.97;1699773;82;21007;-50
2022/08/04 06:45:13;;;;;;;8.35;7.55;;;;;;;28.56;51.66;101430.52;1701451;82;21035;-53
2022/08/04 06:47:41;;;;;;;9.18;8.15;;;;;;;28.56;51.72;101424.30;1698708;84;21035;-50
2022/08/04 06:50:09;;;;;;;9.45;8.58;;;;;;;28.56;51.66;101423.83;1703125;82;20975;-50
2022/08/04 06:52:36;;;;;;;9.10;8.20;;;;;;;28.57;51.62;101424.16;1703042;82;21483;-49
2022/08/04 06:55:04;;;;;;;7.95;7.35;;;;;;;28.59;51.51;101424.02;1700884;82;20979;-51
2022/08/04 06:57:31;;;;;;;9.18;8.28;;;;;;;28.61;51.49;101420.23;1700096;82;21514;-50
2022/08/04 07:00:11;;;;;;;9.00;8.30;;;;;;;28.62;51.26;101417.94;1699902;82;21039;-55
2022/08/04 07:02:45;;;;;;;7.95;7.28;;;;;;;28.64;51.29;101421.33;1695032;82;21071;-52
2022/08/04 07:05:12;;;;;;;9.73;8.68;;;;;;;28.65;51.42;101423.01;1692109;83;21059;-51
2022/08/04 07:07:40;;;;;;;9.68;8.78;;;;;;;28.68;51.37;101424.09;1689270;83;21567;-50
2022/08/04 07:10:08;;;;;;;8.80;7.90;;;;;;;28.70;51.30;101419.94;1691025;83;21110;-53
2022/08/04 07:12:36;;;;;;;9.45;8.55;;;;;;;28.72;51.27;101420.17;1687702;83;21539;-52
2022/08/04 07:15:05;;;;;;;9.10;8.20;;;;;;;28.80;51.04;101421.69;1690751;83;21027;-52
2022/08/04 07:17:32;;;;;;;10.00;8.18;;;;;;;28.90;50.97;101426.59;1691558;84;21051;-51
2022/08/04 07:19:59;;;;;;;8.88;7.83;;;;;;;29.00;50.97;101420.44;1693435;83;21004;-53
2022/08/04 07:22:26;;;;;;;8.65;7.95;;;;;;;29.10;50.74;101421.31;1628621;84;21459;-52
2022/08/04 07:24:57;;;;;;;8.58;7.87;;;;;;;29.17;50.86;101425.16;1690238;83;21598;-50
2022/08/04 07:27:25;;;;;;;9.35;8.58;;;;;;;29.24;50.63;101420.96;1699135;84;21044;-52
2022/08/04 07:29:52;;;;;;;8.53;7.83;;;;;;;29.34;50.18;101425.37;1696717;83;21067;-52
2022/08/04 07:32:22;;;;;;;8.93;8.23;;;;;;;29.39;49.88;101424.92;1689971;83;21539;-51
2022/08/04 07:34:49;;;;;;;9.87;8.93;;;;;;;29.42;49.80;101420.16;1690993;83;21087;-50
2022/08/04 07:37:17;;;;;;;9.18;8.40;;;;;;;29.42;49.80;101420.16;1690955;83;21043;-51
2022/08/04 07:39:43;;;;;;;9.48;8.45;;;;;;;29.44;49.94;101428.06;1687737;83;21031;-51
2022/08/04 07:42:10;;;;;;;8.28;7.60;;;;;;;29.38;49.84;101423.25;1693718;83;21551;-52
2022/08/04 07:44:37;;;;;;;8.70;8.00;;;;;;;29.36;50.07;101430.58;1689348;84;21099;-49
2022/08/04 07:47:06;;;;;;;9.20;8.28;;;;;;;29.36;49.79;101427.91;1693465;83;21036;-51
2022/08/04 07:49:33;;;;;;;9.88;8.88;;;;;;;29.36;49.65;101432.78;1688864;83;21059;-51
2022/08/04 07:52:01;;;;;;;9.73;8.83;;;;;;;29.37;49.32;101428.24;1684977;83;21019;-50
2022/08/04 07:54:29;;;;;;;9.38;8.60;;;;;;;29.35;49.57;101428.88;1687252;83;21531;-51
2022/08/04 07:56:55;;;;;;;9.65;8.85;;;;;;;29.33;49.68;101432.19;1689447;84;21104;-51
2022/08/04 07:59:23;;;;;;;9.35;8.55;;;;;;;29.35;49.70;101424.37;1688543;84;21031;-53
2022/08/04 08:01:50;;;;;;;8.90;8.00;;;;;;;29.37;49.82;101429.58;1695404;83;20995;-50
2022/08/04 08:04:17;;;;;;;9.50;8.80;;;;;;;29.37;49.82;101426.41;1692165;83;21090;-53
2022/08/04 08:06:43;;;;;;;9.03;8.33;;;;;;;29.39;49.81;101435.66;1687185;83;21547;-52
2022/08/04 08:09:13;;;;;;;9.35;8.55;;;;;;;29.40;49.73;101434.69;1687949;83;21048;-52
2022/08/04 08:11:42;;;;;;;8.93;8.13;;;;;;;29.41;49.85;101436.36;1689424;84;21075;-51
2022/08/04 08:14:09;;;;;;;10.60;9.58;;;;;;;29.42;49.71;101433.56;1628501;86;21083;-52
2022/08/04 08:16:36;;;;;;;9.25;8.35;;;;;;;29.42;49.77;101440.75;1626380;86;21127;-49
2022/08/04 08:19:03;;;;;;;9.13;8.40;;;;;;;29.44;49.93;101432.08;1618941;86;21060;-52
2022/08/04 08:21:30;;;;;;;8.93;8.18;;;;;;;29.50;49.90;101439.57;1624765;87;21593;-51
2022/08/04 08:23:57;;;;;;;9.45;8.65;;;;;;;29.54;49.93;101440.50;1628596;86;21060;-52
2022/08/04 08:26:24;;;;;;;9.18;8.33;;;;;;;29.58;49.57;101439.72;1622735;86;21092;-52
2022/08/04 08:28:50;;;;;;;9.43;8.63;;;;;;;29.61;49.48;101441.62;1646701;86;21608;-51
2022/08/04 08:31:17;;;;;;;9.65;8.73;;;;;;;29.65;49.58;101439.53;1650976;84;21055;-49
2022/08/04 08:33:45;;;;;;;10.28;8.75;;;;;;;29.66;49.29;101438.53;1657318;84;21045;-52
2022/08/04 08:36:52;;;;;;;9.65;8.85;;;;;;;29.65;49.44;101439.53;1666395;85;21038;-50
2022/08/04 08:39:37;;;;;;;9.85;8.98;;;;;;;29.64;49.68;101437.83;1665726;85;21022;-49
2022/08/04 08:42:29;;;;;;;8.90;8.20;;;;;;;29.68;49.72;101437.90;1654479;84;21049;-52
2022/08/04 08:45:33;;;;;;;10.18;9.15;;;;;;;29.71;49.92;101430.44;1660084;85;21080;-49
2022/08/04 08:48:57;;;;;;;10.28;9.28;;;;;;;29.75;49.71;101440.42;1648062;84;21017;-51
2022/08/04 08:51:41;;;;;;;10.05;9.05;;;;;;;29.77;49.66;101435.77;1664930;84;21049;-52
2022/08/04 08:54:45;;;;;;;11.25;10.15;;;;;;;29.83;49.26;101439.23;1640308;84;21009;-51
2022/08/04 08:57:41;;;;;;;11.15;10.15;;;;;;;29.86;49.22;101440.79;1663945;84;21628;-52
2022/08/04 09:00:21;;;;;;;11.45;10.32;;;;;;;29.85;48.66;101433.22;1658842;84;21673;-49
2022/08/04 09:03:09;;;;;;;11.25;10.35;;;;;;;29.87;48.81;101441.98;1660384;84;21061;-51
2022/08/04 09:06:11;;;;;;;10.55;9.55;;;;;;;29.90;48.34;101444.39;1611481;86;21154;-52
2022/08/04 09:08:58;;;;;;;9.93;8.98;;;;;;;29.94;48.27;101444.95;1618741;86;21026;-53
2022/08/04 09:11:28;;;;;;;10.45;9.55;;;;;;;30.00;48.18;101447.92;1638922;86;21586;-50
2022/08/04 09:14:02;;;;;;;10.32;9.40;;;;;;;30.06;47.94;101452.73;1651142;85;21542;-51
2022/08/04 09:16:44;;;;;;;10.08;9.18;;;;;;;30.08;47.44;101450.75;1616308;87;21098;-52
2022/08/04 09:19:51;;;;;;;10.55;9.48;;;;;;;30.09;47.17;101453.77;1603063;88;21038;-51
2022/08/04 09:22:42;;;;;;;10.15;9.33;;;;;;;30.08;47.01;101456.11;1589016;89;21035;-52
2022/08/04 09:25:32;;;;;;;11.75;10.63;;;;;;;30.07;46.79;101452.24;1645832;86;21555;-49
2022/08/04 09:28:09;;;;;;;10.08;9.28;;;;;;;30.02;46.90;101455.34;1641994;86;21381;-52
2022/08/04 09:30:42;;;;;;;10.25;9.35;;;;;;;30.00;47.01;101449.27;1644668;86;21074;-52
2022/08/04 09:33:26;;;;;;;10.30;9.40;;;;;;;29.98;47.01;101452.59;1649074;86;21058;-52
2022/08/04 09:36:01;;;;;;;10.90;9.90;;;;;;;29.99;46.83;101456.95;1649158;86;21098;-51
2022/08/04 09:38:43;;;;;;;11.25;10.35;;;;;;;29.99;47.15;101455.61;1619161;88;21039;-48
2022/08/04 09:41:36;;;;;;;10.68;9.75;;;;;;;30.00;47.12;101452.44;1613688;88;21144;-52
2022/08/04 09:44:32;;;;;;;10.93;9.85;;;;;;;29.99;47.29;101446.22;1649109;86;21070;-52
2022/08/04 09:47:26;;;;;;;10.88;9.98;;;;;;;29.98;47.30;101449.91;1651939;86;21023;-52
2022/08/04 09:50:27;;;;;;;10.75;9.95;;;;;;;30.00;47.50;101455.98;1651531;85;21630;-54
2022/08/04 09:52:59;;;;;;;11.40;10.50;;;;;;;30.03;47.20;101454.34;1655082;85;21048;-51
2022/08/04 09:55:47;;;;;;;10.70;9.83;;;;;;;30.03;47.30;101466.41;1651235;85;21034;-52
2022/08/04 09:58:42;;;;;;;10.18;9.38;;;;;;;30.04;47.53;101456.05;1614203;88;21045;-52
2022/08/04 10:01:12;;;;;;;12.58;10.28;;;;;;;30.08;47.25;101460.63;1650718;85;21038;-50
2022/08/04 10:03:44;;;;;;;11.20;10.30;;;;;;;30.15;47.22;101469.30;1662985;85;21150;-51
2022/08/04 10:06:51;;;;;;;10.32;9.43;;;;;;;30.16;47.13;101466.98;1580058;89;21629;-52
2022/08/04 10:09:36;;;;;;;12.25;10.10;;;;;;;30.14;47.32;101468.97;1593226;88;21103;-53
2022/08/04 10:12:22;;;;;;;10.23;9.25;;;;;;;30.18;47.13;101467.70;1613036;87;21548;-53
2022/08/04 10:15:10;;;;;;;10.50;9.60;;;;;;;30.18;47.11;101467.70;1612528;87;21524;-54
2022/08/04 10:17:54;;;;;;;18.80;11.40;;;;;;;30.19;47.02;101469.38;1613825;87;21534;-51
2022/08/04 10:21:15;;;;;;;11.35;10.35;;;;;;;30.22;46.88;101465.08;1575836;89;21120;-50
2022/08/04 10:24:19;;;;;;;10.93;9.83;;;;;;;30.26;46.96;101466.97;1566416;90;21601;-51
2022/08/04 10:26:54;;;;;;;10.53;9.63;;;;;;;30.29;46.67;101468.05;1505989;95;21671;-50
2022/08/04 10:29:30;;;;;;;10.23;9.33;;;;;;;30.29;46.55;101464.91;1492039;95;21169;-50
2022/08/04 10:32:18;;;;;;;10.13;9.33;;;;;;;30.34;46.56;101462.62;1484914;95;21121;-52
2022/08/04 10:35:10;;;;;;;10.18;9.38;;;;;;;30.35;46.57;101467.02;1500153;93;21089;-53
2022/08/04 10:37:51;;;;;;;11.10;10.10;;;;;;;30.38;46.15;101465.37;1523108;93;21559;-53
2022/08/04 10:40:48;;;;;;;10.45;9.48;;;;;;;30.38;46.04;101465.37;1453699;98;21287;-52
2022/08/04 10:43:38;;;;;;;10.15;9.35;;;;;;;30.36;46.11;101456.61;1442486;98;21129;-52
2022/08/04 10:46:22;;;;;;;10.75;9.80;;;;;;;30.38;46.06;101451.94;1444628;98;21170;-55
2022/08/04 10:49:11;;;;;;;11.28;10.10;;;;;;;30.35;45.85;101450.91;1454658;98;21109;-53
2022/08/04 10:52:09;;;;;;;10.58;9.68;;;;;;;30.37;45.96;101456.98;1455040;97;21558;-54
2022/08/04 10:55:08;;;;;;;10.65;9.85;;;;;;;30.39;46.09;101453.66;1441647;98;21662;-51
2022/08/04 10:57:47;;;;;;;10.30;9.40;;;;;;;30.42;46.13;101454.69;1475153;95;21046;-55
2022/08/04 11:00:23;;;;;;;10.28;9.43;;;;;;;30.50;46.19;101456.67;1478160;96;21119;-52
2022/08/04 11:03:10;;;;;;;8.98;8.18;;;;;;;30.51;46.14;101460.55;1501063;92;21077;-51
2022/08/04 11:05:56;;;;;;;9.50;8.55;;;;;;;30.58;46.00;101453.26;1544091;92;21058;-50
2022/08/04 11:08:37;;;;;;;9.98;9.05;;;;;;;30.66;45.51;101453.38;1532818;92;21078;-50
2022/08/04 11:11:34;;;;;;;9.30;8.60;;;;;;;30.77;45.21;101449.18;1492968;96;21105;-51
2022/08/04 11:14:16;;;;;;;8.35;7.55;;;;;;;30.85;44.59;101445.30;1540044;92;21620;-50
2022/08/04 11:17:03;;;;;;;9.45;8.70;;;;;;;30.91;43.89;101440.67;1558357;92;21146;-54
2022/08/04 11:19:36;;;;;;;9.03;8.25;;;;;;;30.93;44.28;101437.34;1521135;94;21156;-52
2022/08/04 11:22:24;;;;;;;9.25;8.50;;;;;;;30.96;44.38;101433.00;1531380;94;21114;-53
2022/08/04 11:25:17;;;;;;;9.25;8.35;;;;;;;30.99;43.97;101432.71;1515557;94;21074;-51
2022/08/04 11:28:14;;;;;;;8.30;7.53;;;;;;;31.00;44.10;101437.94;1531420;94;21057;-51
2022/08/04 11:30:58;;;;;;;8.25;7.55;;;;;;;31.04;43.75;101437.13;1527693;94;21106;-50
2022/08/04 11:34:04;;;;;;;7.62;7.00;;;;;;;31.02;43.55;101426.53;1483517;96;21582;-56
2022/08/04 11:36:41;;;;;;;7.58;6.87;;;;;;;31.03;43.66;101420.67;1501273;95;21091;-49
2022/08/04 11:39:20;;;;;;;7.42;6.83;;;;;;;31.07;43.45;101420.72;1478035;97;21598;-53
2022/08/04 11:42:21;;;;;;;8.05;7.35;;;;;;;31.12;43.31;101419.75;1516109;93;21099;-51
2022/08/04 11:45:06;;;;;;;7.30;6.72;;;;;;;31.16;43.26;101419.84;1438838;98;21202;-53
2022/08/04 11:47:41;;;;;;;7.47;6.90;;;;;;;31.19;42.96;101419.52;1438974;98;21118;-53
2022/08/04 11:50:21;;;;;;;7.50;6.90;;;;;;;31.25;43.36;101423.80;1397633;101;21193;-54
2022/08/04 11:52:47;;;;;;;7.30;6.70;;;;;;;31.31;42.91;101421.00;1397758;101;21165;-50
2022/08/04 11:55:16;;;;;;;7.33;6.78;;;;;;;31.37;42.82;101420.39;1397685;103;21106;-50
2022/08/04 11:57:42;;;;;;;8.15;7.50;;;;;;;31.41;42.93;101424.50;1411353;101;21147;-54
2022/08/04 12:00:12;;;;;;;7.12;6.60;;;;;;;31.47;43.08;101421.73;1412449;100;21124;-50
2022/08/04 12:03:14;;;;;;;15.95;7.62;;;;;;;31.54;43.12;101418.77;1412659;100;21611;-51
2022/08/04 12:06:21;;;;;;;7.78;6.97;;;;;;;31.58;42.83;101415.63;1412427;100;21186;-55
2022/08/04 12:09:08;;;;;;;6.95;6.25;;;;;;;31.63;42.52;101416.02;1398162;101;21159;-51
2022/08/04 12:12:24;;;;;;;7.28;6.67;;;;;;;31.66;42.43;101414.36;1337907;106;21128;-53
2022/08/04 12:15:03;;;;;;;6.15;5.65;;;;;;;31.71;42.52;101409.87;1367560;103;21182;-53
2022/08/04 12:17:37;;;;;;;6.47;5.97;;;;;;;31.76;42.11;101402.16;1461314;96;21079;-54
2022/08/04 12:22:39;;;;;;;6.40;5.80;;;;;;;31.81;42.29;101396.69;1406374;101;21147;-51
2022/08/04 12:25:11;;;;;;;6.50;5.90;;;;;;;31.85;41.79;101401.25;1422942;100;21559;-53
2022/08/04 12:27:52;;;;;;;7.10;6.47;;;;;;;31.88;41.58;101395.57;1414903;99;21130;-52
2022/08/04 12:30:19;;;;;;;;;;;;;;;31.88;41.69;101388.31;1399107;102;21214;-53
2022/08/04 12:33:03;;;;;;;6.35;5.95;;;;;;;31.88;41.49;101391.01;1397120;102;20221;-54